Die Wetterstation in Yach-Sommerrain 515m üNN
Wetterdaten: aktuell Samstag, 09.05.2026 01:40
Datum Zeit Temp. A. Feuchte A. Luftdruck Regen Wind Richtung Richtung Solar Taupunkt Windchill Windböen Empfang
09.05.2026 01:40 11,4 °C 87 % 1020,0 hPa 0,0 l/m² 2,4 km/h (1 Bft) W-NW 295 ° 0 W/m² 9,3 °C 11,4 °C 3,2 km/h (1 Bft) 100 %
09.05.2026 01:35 11,6 °C 86 % 1020,0 hPa 0,0 l/m² 2,6 km/h (1 Bft) W-NW 295 ° 0 W/m² 9,3 °C 11,6 °C 3,2 km/h (1 Bft) 100 %
09.05.2026 01:30 11,7 °C 86 % 1020,0 hPa 0,0 l/m² 1,0 km/h (0 Bft) W-NW 295 ° 0 W/m² 9,4 °C 11,7 °C 4,8 km/h (1 Bft) 100 %
09.05.2026 01:25 11,8 °C 85 % 1019,8 hPa 0,0 l/m² 1,6 km/h (1 Bft) W-NW 294 ° 0 W/m² 9,4 °C 11,8 °C 3,2 km/h (1 Bft) 100 %
09.05.2026 01:20 12,1 °C 85 % 1020,0 hPa 0,0 l/m² 2,3 km/h (1 Bft) W-NW 294 ° 0 W/m² 9,7 °C 12,1 °C 3,2 km/h (1 Bft) 100 %
09.05.2026 01:15 12,2 °C 85 % 1019,9 hPa 0,0 l/m² 1,1 km/h (1 Bft) W-NW 294 ° 0 W/m² 9,8 °C 12,2 °C 3,2 km/h (1 Bft) 100 %
09.05.2026 01:10 12,3 °C 84 % 1019,9 hPa 0,0 l/m² 1,2 km/h (1 Bft) W-NW 294 ° 0 W/m² 9,7 °C 12,3 °C 3,2 km/h (1 Bft) 100 %
09.05.2026 01:05 12,5 °C 84 % 1019,9 hPa 0,0 l/m² 2,0 km/h (1 Bft) W-NW 294 ° 0 W/m² 9,9 °C 12,5 °C 3,2 km/h (1 Bft) 100 %
09.05.2026 01:00 12,7 °C 83 % 1019,9 hPa 0,0 l/m² 2,8 km/h (1 Bft) W-NW 294 ° 0 W/m² 9,9 °C 12,7 °C 4,8 km/h (1 Bft) 100 %
09.05.2026 00:55 12,9 °C 82 % 1019,9 hPa 0,0 l/m² 2,2 km/h (1 Bft) W-NW 293 ° 0 W/m² 9,9 °C 12,9 °C 3,2 km/h (1 Bft) 100 %
09.05.2026 00:50 13,2 °C 81 % 1019,8 hPa 0,0 l/m² 1,0 km/h (0 Bft) W-NW 293 ° 0 W/m² 10,0 °C 13,2 °C 3,2 km/h (1 Bft) 100 %
09.05.2026 00:45 13,4 °C 80 % 1020,0 hPa 0,0 l/m² 1,9 km/h (1 Bft) W-NW 293 ° 0 W/m² 10,0 °C 13,4 °C 3,2 km/h (1 Bft) 100 %
09.05.2026 00:40 13,6 °C 78 % 1019,9 hPa 0,0 l/m² 2,2 km/h (1 Bft) W-NW 293 ° 0 W/m² 9,8 °C 13,6 °C 4,8 km/h (1 Bft) 100 %
09.05.2026 00:35 13,7 °C 79 % 1020,0 hPa 0,0 l/m² 2,4 km/h (1 Bft) N-NO 17 ° 0 W/m² 10,1 °C 13,7 °C 4,8 km/h (1 Bft) 100 %
09.05.2026 00:30 13,8 °C 78 % 1019,8 hPa 0,0 l/m² 3,7 km/h (1 Bft) W 266 ° 0 W/m² 10,0 °C 13,8 °C 12,9 km/h (3 Bft) 100 %
09.05.2026 00:25 13,8 °C 78 % 1019,8 hPa 0,0 l/m² 2,9 km/h (1 Bft) W 268 ° 0 W/m² 10,0 °C 13,8 °C 11,3 km/h (2 Bft) 100 %
09.05.2026 00:20 13,8 °C 78 % 1019,8 hPa 0,0 l/m² 4,0 km/h (1 Bft) W-NW 297 ° 0 W/m² 10,0 °C 13,8 °C 12,9 km/h (3 Bft) 100 %
09.05.2026 00:15 13,8 °C 78 % 1019,7 hPa 0,0 l/m² 4,6 km/h (1 Bft) W-SW 256 ° 0 W/m² 10,0 °C 13,8 °C 9,7 km/h (2 Bft) 100 %
09.05.2026 00:10 13,8 °C 78 % 1019,7 hPa 0,0 l/m² 3,1 km/h (1 Bft) W 271 ° 0 W/m² 10,0 °C 13,8 °C 6,4 km/h (2 Bft) 100 %
09.05.2026 00:05 13,7 °C 79 % 1019,8 hPa 0,0 l/m² 2,6 km/h (1 Bft) W 268 ° 0 W/m² 10,1 °C 13,7 °C 6,4 km/h (2 Bft) 100 %
09.05.2026 00:00 13,7 °C 80 % 1019,8 hPa 0,0 l/m² 3,5 km/h (1 Bft) SW 224 ° 0 W/m² 10,3 °C 13,7 °C 8,0 km/h (2 Bft) 100 %
08.05.2026 23:55 13,5 °C 80 % 1019,7 hPa 0,0 l/m² 4,8 km/h (1 Bft) S-SW 206 ° 0 W/m² 10,1 °C 13,5 °C 11,3 km/h (2 Bft) 100 %
08.05.2026 23:50 13,4 °C 80 % 1019,7 hPa 0,0 l/m² 2,8 km/h (1 Bft) NW 310 ° 0 W/m² 10,0 °C 13,4 °C 6,4 km/h (2 Bft) 100 %
08.05.2026 23:45 13,5 °C 80 % 1019,7 hPa 0,0 l/m² 2,2 km/h (1 Bft) W-NW 297 ° 0 W/m² 10,1 °C 13,5 °C 6,4 km/h (2 Bft) 100 %
08.05.2026 23:40 13,6 °C 80 % 1019,6 hPa 0,0 l/m² 2,7 km/h (1 Bft) W-NW 295 ° 0 W/m² 10,2 °C 13,6 °C 6,4 km/h (2 Bft) 100 %
08.05.2026 23:35 13,7 °C 80 % 1019,5 hPa 0,0 l/m² 3,2 km/h (1 Bft) W-NW 298 ° 0 W/m² 10,3 °C 13,7 °C 6,4 km/h (2 Bft) 100 %
08.05.2026 23:30 13,7 °C 80 % 1019,6 hPa 0,0 l/m² 3,1 km/h (1 Bft) W-SW 253 ° 0 W/m² 10,3 °C 13,7 °C 11,3 km/h (2 Bft) 100 %
08.05.2026 23:25 13,6 °C 80 % 1019,7 hPa 0,0 l/m² 2,4 km/h (1 Bft) W-SW 242 ° 0 W/m² 10,2 °C 13,6 °C 4,8 km/h (1 Bft) 100 %
08.05.2026 23:20 13,5 °C 81 % 1019,6 hPa 0,0 l/m² 2,7 km/h (1 Bft) W-NW 282 ° 0 W/m² 10,3 °C 13,5 °C 6,4 km/h (2 Bft) 100 %
08.05.2026 23:15 13,4 °C 82 % 1019,7 hPa 0,0 l/m² 1,3 km/h (1 Bft) W-NW 298 ° 0 W/m² 10,4 °C 13,4 °C 4,8 km/h (1 Bft) 100 %
08.05.2026 23:10 13,5 °C 82 % 1019,7 hPa 0,0 l/m² 1,4 km/h (1 Bft) W-NW 300 ° 0 W/m² 10,5 °C 13,5 °C 3,2 km/h (1 Bft) 100 %
08.05.2026 23:05 13,6 °C 82 % 1019,8 hPa 0,0 l/m² 1,5 km/h (1 Bft) W-NW 301 ° 0 W/m² 10,6 °C 13,6 °C 3,2 km/h (1 Bft) 100 %
08.05.2026 23:00 13,7 °C 81 % 1019,9 hPa 0,0 l/m² 2,5 km/h (1 Bft) W-NW 301 ° 0 W/m² 10,5 °C 13,7 °C 4,8 km/h (1 Bft) 100 %
08.05.2026 22:55 13,8 °C 81 % 1019,8 hPa 0,0 l/m² 2,3 km/h (1 Bft) W-NW 300 ° 0 W/m² 10,6 °C 13,8 °C 4,8 km/h (1 Bft) 100 %
08.05.2026 22:50 13,9 °C 81 % 1019,9 hPa 0,0 l/m² 1,6 km/h (1 Bft) W-NW 300 ° 0 W/m² 10,7 °C 13,9 °C 3,2 km/h (1 Bft) 100 %
08.05.2026 22:45 13,9 °C 80 % 1019,9 hPa 0,0 l/m² 2,7 km/h (1 Bft) W-NW 299 ° 0 W/m² 10,5 °C 13,9 °C 4,8 km/h (1 Bft) 100 %
08.05.2026 22:40 14,0 °C 80 % 1019,8 hPa 0,0 l/m² 2,4 km/h (1 Bft) NW 305 ° 0 W/m² 10,6 °C 14,0 °C 4,8 km/h (1 Bft) 100 %
08.05.2026 22:35 14,1 °C 80 % 1019,8 hPa 0,0 l/m² 2,2 km/h (1 Bft) NW 305 ° 0 W/m² 10,7 °C 14,1 °C 4,8 km/h (1 Bft) 100 %
08.05.2026 22:30 14,1 °C 79 % 1019,8 hPa 0,0 l/m² 2,0 km/h (1 Bft) NW 308 ° 0 W/m² 10,5 °C 14,1 °C 4,8 km/h (1 Bft) 100 %
08.05.2026 22:25 14,1 °C 80 % 1019,7 hPa 0,0 l/m² 1,8 km/h (1 Bft) NW 308 ° 0 W/m² 10,7 °C 14,1 °C 3,2 km/h (1 Bft) 100 %
08.05.2026 22:20 14,1 °C 79 % 1019,7 hPa 0,0 l/m² 2,6 km/h (1 Bft) NW 308 ° 0 W/m² 10,5 °C 14,1 °C 4,8 km/h (1 Bft) 100 %
08.05.2026 22:15 13,9 °C 80 % 1019,7 hPa 0,0 l/m² 3,0 km/h (1 Bft) SW 234 ° 0 W/m² 10,5 °C 13,9 °C 6,4 km/h (2 Bft) 100 %
08.05.2026 22:10 13,7 °C 81 % 1019,8 hPa 0,0 l/m² 2,9 km/h (1 Bft) NW 307 ° 0 W/m² 10,5 °C 13,7 °C 6,4 km/h (2 Bft) 100 %
08.05.2026 22:05 13,5 °C 82 % 1019,6 hPa 0,0 l/m² 1,9 km/h (1 Bft) W 260 ° 0 W/m² 10,5 °C 13,5 °C 4,8 km/h (1 Bft) 100 %
08.05.2026 22:00 13,3 °C 82 % 1019,7 hPa 0,0 l/m² 1,6 km/h (1 Bft) W-SW 258 ° 0 W/m² 10,3 °C 13,3 °C 4,8 km/h (1 Bft) 100 %
08.05.2026 21:55 12,9 °C 84 % 1019,7 hPa 0,0 l/m² 1,0 km/h (0 Bft) W-NW 287 ° 0 W/m² 10,3 °C 12,9 °C 6,4 km/h (2 Bft) 100 %
08.05.2026 21:50 12,8 °C 84 % 1019,5 hPa 0,0 l/m² 0,0 km/h (0 Bft) W-NW 287 ° 0 W/m² 10,2 °C 12,8 °C 0,0 km/h (0 Bft) 100 %
08.05.2026 21:45 12,9 °C 84 % 1019,5 hPa 0,0 l/m² 0,0 km/h (0 Bft) W-NW 287 ° 0 W/m² 10,3 °C 12,9 °C 0,0 km/h (0 Bft) 100 %
08.05.2026 21:40 12,9 °C 84 % 1019,4 hPa 0,0 l/m² 0,0 km/h (0 Bft) W-NW 284 ° 0 W/m² 10,3 °C 12,9 °C 0,0 km/h (0 Bft) 100 %
08.05.2026 21:35 12,9 °C 84 % 1019,3 hPa 0,0 l/m² 0,0 km/h (0 Bft) W-NW 299 ° 0 W/m² 10,3 °C 12,9 °C 0,0 km/h (0 Bft) 100 %
08.05.2026 21:30 12,9 °C 84 % 1019,4 hPa 0,0 l/m² 0,0 km/h (0 Bft) W-NW 299 ° 0 W/m² 10,3 °C 12,9 °C 0,0 km/h (0 Bft) 100 %
08.05.2026 21:25 13,1 °C 84 % 1019,3 hPa 0,0 l/m² 0,0 km/h (0 Bft) W-NW 299 ° 0 W/m² 10,5 °C 13,1 °C 0,0 km/h (0 Bft) 100 %
08.05.2026 21:20 13,2 °C 83 % 1019,3 hPa 0,0 l/m² 0,0 km/h (0 Bft) W-NW 299 ° 0 W/m² 10,4 °C 13,2 °C 0,0 km/h (0 Bft) 100 %
08.05.2026 21:15 13,3 °C 83 % 1019,1 hPa 0,0 l/m² 0,0 km/h (0 Bft) W-NW 299 ° 0 W/m² 10,5 °C 13,3 °C 0,0 km/h (0 Bft) 100 %
08.05.2026 21:10 13,5 °C 83 % 1019,2 hPa 0,0 l/m² 0,0 km/h (0 Bft) W-NW 299 ° 0 W/m² 10,7 °C 13,5 °C 0,0 km/h (0 Bft) 100 %
08.05.2026 21:05 13,7 °C 82 % 1019,0 hPa 0,0 l/m² 0,0 km/h (0 Bft) W-NW 299 ° 0 W/m² 10,7 °C 13,7 °C 0,0 km/h (0 Bft) 100 %
08.05.2026 21:00 13,8 °C 82 % 1019,0 hPa 0,0 l/m² 0,0 km/h (0 Bft) W-NW 299 ° 0 W/m² 10,8 °C 13,8 °C 0,0 km/h (0 Bft) 100 %
08.05.2026 20:55 14,0 °C 82 % 1018,9 hPa 0,0 l/m² 0,0 km/h (0 Bft) W-NW 299 ° 0 W/m² 11,0 °C 14,0 °C 0,0 km/h (0 Bft) 100 %
08.05.2026 20:50 14,2 °C 82 % 1018,8 hPa 0,0 l/m² 0,0 km/h (0 Bft) W-NW 299 ° 0 W/m² 11,2 °C 14,2 °C 0,0 km/h (0 Bft) 100 %
08.05.2026 20:45 14,3 °C 81 % 1018,7 hPa 0,0 l/m² 0,0 km/h (0 Bft) W-NW 299 ° 0 W/m² 11,1 °C 14,3 °C 0,0 km/h (0 Bft) 100 %
08.05.2026 20:40 14,4 °C 81 % 1018,7 hPa 0,0 l/m² 0,0 km/h (0 Bft) W-NW 299 ° 4 W/m² 11,2 °C 14,4 °C 0,0 km/h (0 Bft) 100 %
08.05.2026 20:35 14,7 °C 81 % 1018,6 hPa 0,0 l/m² 0,0 km/h (0 Bft) W-NW 299 ° 6 W/m² 11,5 °C 14,7 °C 0,0 km/h (0 Bft) 100 %
08.05.2026 20:30 14,9 °C 81 % 1018,6 hPa 0,0 l/m² 0,0 km/h (0 Bft) W-NW 299 ° 7 W/m² 11,7 °C 14,9 °C 0,0 km/h (0 Bft) 100 %
08.05.2026 20:25 15,1 °C 81 % 1018,5 hPa 0,0 l/m² 0,0 km/h (0 Bft) W-NW 299 ° 9 W/m² 11,9 °C 15,1 °C 0,0 km/h (0 Bft) 100 %
08.05.2026 20:20 15,3 °C 79 % 1018,3 hPa 0,0 l/m² 0,0 km/h (0 Bft) W-NW 299 ° 9 W/m² 11,7 °C 15,3 °C 0,0 km/h (0 Bft) 100 %
08.05.2026 20:15 15,5 °C 78 % 1018,5 hPa 0,0 l/m² 0,0 km/h (0 Bft) W-NW 299 ° 12 W/m² 11,7 °C 15,5 °C 0,0 km/h (0 Bft) 100 %
08.05.2026 20:10 15,7 °C 78 % 1018,3 hPa 0,0 l/m² 0,3 km/h (0 Bft) W-NW 299 ° 12 W/m² 11,9 °C 15,7 °C 1,6 km/h (1 Bft) 100 %
08.05.2026 20:05 15,9 °C 77 % 1018,2 hPa 0,0 l/m² 1,8 km/h (1 Bft) W-NW 299 ° 14 W/m² 11,9 °C 15,9 °C 3,2 km/h (1 Bft) 100 %
08.05.2026 20:00 16,1 °C 74 % 1018,2 hPa 0,0 l/m² 0,4 km/h (0 Bft) W-NW 299 ° 17 W/m² 11,5 °C 16,1 °C 3,2 km/h (1 Bft) 100 %
08.05.2026 19:55 16,3 °C 73 % 1018,1 hPa 0,0 l/m² 0,0 km/h (0 Bft) W-NW 299 ° 16 W/m² 11,4 °C 16,3 °C 0,0 km/h (0 Bft) 100 %
08.05.2026 19:50 16,3 °C 73 % 1018,0 hPa 0,0 l/m² 1,4 km/h (1 Bft) W-NW 299 ° 21 W/m² 11,4 °C 16,3 °C 3,2 km/h (1 Bft) 100 %
08.05.2026 19:45 16,5 °C 74 % 1017,9 hPa 0,0 l/m² 3,3 km/h (1 Bft) W-NW 299 ° 23 W/m² 11,8 °C 16,5 °C 4,8 km/h (1 Bft) 100 %
08.05.2026 19:40 16,7 °C 73 % 1017,8 hPa 0,0 l/m² 3,6 km/h (1 Bft) W-NW 299 ° 25 W/m² 11,8 °C 16,7 °C 4,8 km/h (1 Bft) 100 %
08.05.2026 19:35 16,9 °C 71 % 1017,7 hPa 0,0 l/m² 3,2 km/h (1 Bft) W-NW 298 ° 29 W/m² 11,6 °C 16,9 °C 4,8 km/h (1 Bft) 100 %
08.05.2026 19:30 17,1 °C 69 % 1017,7 hPa 0,0 l/m² 2,1 km/h (1 Bft) W-NW 297 ° 37 W/m² 11,4 °C 17,1 °C 4,8 km/h (1 Bft) 100 %
08.05.2026 19:25 17,3 °C 67 % 1017,7 hPa 0,0 l/m² 2,5 km/h (1 Bft) W-NW 301 ° 40 W/m² 11,1 °C 17,3 °C 4,8 km/h (1 Bft) 100 %
08.05.2026 19:20 17,5 °C 68 % 1017,7 hPa 0,0 l/m² 2,2 km/h (1 Bft) W-NW 300 ° 49 W/m² 11,5 °C 17,5 °C 4,8 km/h (1 Bft) 100 %
08.05.2026 19:15 17,7 °C 63 % 1017,7 hPa 0,0 l/m² 1,9 km/h (1 Bft) W-NW 297 ° 48 W/m² 10,6 °C 17,7 °C 4,8 km/h (1 Bft) 100 %
08.05.2026 19:10 17,8 °C 67 % 1017,6 hPa 0,0 l/m² 2,7 km/h (1 Bft) W-NW 300 ° 48 W/m² 11,6 °C 17,8 °C 4,8 km/h (1 Bft) 100 %
08.05.2026 19:05 18,2 °C 64 % 1017,6 hPa 0,0 l/m² 1,6 km/h (1 Bft) W-NW 299 ° 64 W/m² 11,3 °C 18,2 °C 4,8 km/h (1 Bft) 100 %
08.05.2026 19:00 18,4 °C 62 % 1017,7 hPa 0,0 l/m² 2,4 km/h (1 Bft) W-NW 287 ° 66 W/m² 11,0 °C 18,4 °C 6,4 km/h (2 Bft) 100 %
08.05.2026 18:55 18,8 °C 68 % 1017,5 hPa 0,0 l/m² 2,5 km/h (1 Bft) NW 320 ° 101 W/m² 12,8 °C 18,8 °C 6,4 km/h (2 Bft) 100 %
08.05.2026 18:50 18,9 °C 63 % 1017,6 hPa 0,0 l/m² 2,3 km/h (1 Bft) W-SW 241 ° 253 W/m² 11,7 °C 18,9 °C 6,4 km/h (2 Bft) 100 %
08.05.2026 18:45 18,8 °C 66 % 1017,6 hPa 0,0 l/m² 3,4 km/h (1 Bft) W 262 ° 275 W/m² 12,3 °C 18,8 °C 11,3 km/h (2 Bft) 100 %
08.05.2026 18:40 19,1 °C 71 % 1017,5 hPa 0,0 l/m² 2,4 km/h (1 Bft) N 4 ° 140 W/m² 13,7 °C 19,1 °C 4,8 km/h (1 Bft) 100 %
08.05.2026 18:35 19,2 °C 64 % 1017,6 hPa 0,0 l/m² 4,4 km/h (1 Bft) O 92 ° 107 W/m² 12,2 °C 19,2 °C 11,3 km/h (2 Bft) 100 %
08.05.2026 18:30 19,4 °C 67 % 1017,4 hPa 0,0 l/m² 3,8 km/h (1 Bft) O-SO 116 ° 91 W/m² 13,1 °C 19,4 °C 9,7 km/h (2 Bft) 100 %
08.05.2026 18:25 19,3 °C 65 % 1017,5 hPa 0,0 l/m² 3,7 km/h (1 Bft) SO 124 ° 100 W/m² 12,6 °C 19,3 °C 9,7 km/h (2 Bft) 100 %
08.05.2026 18:20 19,6 °C 66 % 1017,5 hPa 0,0 l/m² 4,0 km/h (1 Bft) S 177 ° 170 W/m² 13,1 °C 19,6 °C 9,7 km/h (2 Bft) 100 %
08.05.2026 18:15 19,6 °C 63 % 1017,5 hPa 0,0 l/m² 2,4 km/h (1 Bft) O-SO 106 ° 363 W/m² 12,4 °C 19,6 °C 6,4 km/h (2 Bft) 100 %
08.05.2026 18:10 19,4 °C 64 % 1017,6 hPa 0,0 l/m² 4,7 km/h (1 Bft) O-SO 117 ° 378 W/m² 12,4 °C 19,4 °C 9,7 km/h (2 Bft) 100 %
08.05.2026 18:05 19,6 °C 63 % 1017,6 hPa 0,0 l/m² 4,0 km/h (1 Bft) O-SO 122 ° 384 W/m² 12,4 °C 19,6 °C 11,3 km/h (2 Bft) 100 %
08.05.2026 18:00 19,4 °C 58 % 1017,6 hPa 0,0 l/m² 4,4 km/h (1 Bft) O-SO 121 ° 402 W/m² 10,9 °C 19,4 °C 11,3 km/h (2 Bft) 100 %
08.05.2026 17:55 19,3 °C 64 % 1017,7 hPa 0,0 l/m² 4,3 km/h (1 Bft) O-SO 110 ° 320 W/m² 12,3 °C 19,3 °C 9,7 km/h (2 Bft) 100 %
08.05.2026 17:50 19,7 °C 63 % 1017,7 hPa 0,0 l/m² 3,6 km/h (1 Bft) SO 146 ° 421 W/m² 12,5 °C 19,7 °C 6,4 km/h (2 Bft) 100 %
08.05.2026 17:45 19,9 °C 66 % 1017,7 hPa 0,0 l/m² 2,2 km/h (1 Bft) O-SO 112 ° 453 W/m² 13,4 °C 19,9 °C 6,4 km/h (2 Bft) 100 %
08.05.2026 17:40 19,6 °C 63 % 1017,8 hPa 0,0 l/m² 2,9 km/h (1 Bft) SO 134 ° 344 W/m² 12,4 °C 19,6 °C 8,0 km/h (2 Bft) 100 %
08.05.2026 17:35 19,5 °C 66 % 1017,8 hPa 0,0 l/m² 2,6 km/h (1 Bft) O-SO 111 ° 501 W/m² 13,0 °C 19,5 °C 6,4 km/h (2 Bft) 100 %
08.05.2026 17:30 19,2 °C 66 % 1017,8 hPa 0,0 l/m² 1,4 km/h (1 Bft) SO 143 ° 146 W/m² 12,7 °C 19,2 °C 4,8 km/h (1 Bft) 100 %
08.05.2026 17:25 19,7 °C 65 % 1017,8 hPa 0,0 l/m² 1,8 km/h (1 Bft) SO 146 ° 178 W/m² 12,9 °C 19,7 °C 6,4 km/h (2 Bft) 100 %
08.05.2026 17:20 20,1 °C 64 % 1017,9 hPa 0,0 l/m² 2,9 km/h (1 Bft) W-SW 246 ° 489 W/m² 13,1 °C 20,1 °C 9,7 km/h (2 Bft) 100 %
08.05.2026 17:15 19,8 °C 68 % 1017,8 hPa 0,0 l/m² 1,9 km/h (1 Bft) S-SO 162 ° 463 W/m² 13,7 °C 19,8 °C 6,4 km/h (2 Bft) 100 %
08.05.2026 17:10 19,3 °C 66 % 1017,8 hPa 0,0 l/m² 3,8 km/h (1 Bft) S-SO 161 ° 203 W/m² 12,8 °C 19,3 °C 6,4 km/h (2 Bft) 100 %
08.05.2026 17:05 20,0 °C 62 % 1017,9 hPa 0,0 l/m² 4,5 km/h (1 Bft) SO 133 ° 272 W/m² 12,5 °C 20,0 °C 11,3 km/h (2 Bft) 100 %
08.05.2026 17:00 20,8 °C 61 % 1018,0 hPa 0,0 l/m² 3,0 km/h (1 Bft) O 93 ° 570 W/m² 13,0 °C 20,8 °C 6,4 km/h (2 Bft) 100 %
08.05.2026 16:55 20,4 °C 61 % 1017,9 hPa 0,0 l/m² 4,1 km/h (1 Bft) O-SO 104 ° 596 W/m² 12,6 °C 20,4 °C 11,3 km/h (2 Bft) 100 %
08.05.2026 16:50 19,8 °C 63 % 1017,9 hPa 0,0 l/m² 4,5 km/h (1 Bft) SO 126 ° 527 W/m² 12,5 °C 19,8 °C 12,9 km/h (3 Bft) 100 %
08.05.2026 16:45 19,1 °C 64 % 1018,0 hPa 0,0 l/m² 4,7 km/h (1 Bft) O-SO 120 ° 198 W/m² 12,1 °C 19,1 °C 9,7 km/h (2 Bft) 100 %
08.05.2026 16:40 19,2 °C 65 % 1018,0 hPa 0,0 l/m² 3,8 km/h (1 Bft) O 95 ° 456 W/m² 12,5 °C 19,2 °C 9,7 km/h (2 Bft) 100 %
08.05.2026 16:35 18,9 °C 63 % 1018,0 hPa 0,0 l/m² 3,4 km/h (1 Bft) O-SO 119 ° 362 W/m² 11,7 °C 18,9 °C 6,4 km/h (2 Bft) 100 %
08.05.2026 16:30 19,0 °C 62 % 1018,2 hPa 0,0 l/m² 4,0 km/h (1 Bft) O-SO 119 ° 511 W/m² 11,6 °C 19,0 °C 6,4 km/h (2 Bft) 100 %
08.05.2026 16:25 18,8 °C 64 % 1018,2 hPa 0,0 l/m² 4,9 km/h (1 Bft) O 79 ° 564 W/m² 11,8 °C 18,8 °C 12,9 km/h (3 Bft) 100 %
08.05.2026 16:20 18,2 °C 65 % 1018,3 hPa 0,0 l/m² 3,6 km/h (1 Bft) O-SO 102 ° 166 W/m² 11,5 °C 18,2 °C 9,7 km/h (2 Bft) 100 %
08.05.2026 16:15 18,4 °C 66 % 1018,2 hPa 0,0 l/m² 3,1 km/h (1 Bft) O-SO 122 ° 138 W/m² 11,9 °C 18,4 °C 6,4 km/h (2 Bft) 100 %
08.05.2026 16:10 18,6 °C 65 % 1018,2 hPa 0,0 l/m² 4,5 km/h (1 Bft) SO 138 ° 205 W/m² 11,9 °C 18,6 °C 12,9 km/h (3 Bft) 100 %
08.05.2026 16:05 18,5 °C 66 % 1018,3 hPa 0,0 l/m² 3,6 km/h (1 Bft) O-SO 114 ° 185 W/m² 12,0 °C 18,5 °C 12,9 km/h (3 Bft) 100 %
08.05.2026 16:00 19,0 °C 63 % 1018,4 hPa 0,0 l/m² 4,9 km/h (1 Bft) O 100 ° 514 W/m² 11,8 °C 19,0 °C 11,3 km/h (2 Bft) 100 %
08.05.2026 15:55 19,1 °C 62 % 1018,5 hPa 0,0 l/m² 3,2 km/h (1 Bft) SO 130 ° 778 W/m² 11,6 °C 19,1 °C 4,8 km/h (1 Bft) 100 %
08.05.2026 15:50 19,1 °C 62 % 1018,5 hPa 0,0 l/m² 4,1 km/h (1 Bft) O-SO 114 ° 757 W/m² 11,6 °C 19,1 °C 9,7 km/h (2 Bft) 100 %
08.05.2026 15:45 18,4 °C 66 % 1018,5 hPa 0,0 l/m² 1,9 km/h (1 Bft) O-SO 112 ° 379 W/m² 11,9 °C 18,4 °C 6,4 km/h (2 Bft) 100 %
08.05.2026 15:40 18,3 °C 65 % 1018,5 hPa 0,0 l/m² 3,2 km/h (1 Bft) O 92 ° 106 W/m² 11,6 °C 18,3 °C 11,3 km/h (2 Bft) 100 %
08.05.2026 15:35 18,6 °C 63 % 1018,6 hPa 0,0 l/m² 2,7 km/h (1 Bft) S-SO 162 ° 540 W/m² 11,4 °C 18,6 °C 6,4 km/h (2 Bft) 100 %
08.05.2026 15:30 18,7 °C 64 % 1018,6 hPa 0,0 l/m² 2,8 km/h (1 Bft) SO 125 ° 808 W/m² 11,7 °C 18,7 °C 6,4 km/h (2 Bft) 100 %
08.05.2026 15:25 18,3 °C 66 % 1018,7 hPa 0,0 l/m² 3,2 km/h (1 Bft) SO 135 ° 476 W/m² 11,8 °C 18,3 °C 6,4 km/h (2 Bft) 100 %
08.05.2026 15:20 18,4 °C 66 % 1018,8 hPa 0,0 l/m² 3,0 km/h (1 Bft) SO 142 ° 553 W/m² 11,9 °C 18,4 °C 6,4 km/h (2 Bft) 100 %
08.05.2026 15:15 18,0 °C 68 % 1018,7 hPa 0,0 l/m² 2,3 km/h (1 Bft) S-SO 168 ° 655 W/m² 12,0 °C 18,0 °C 6,4 km/h (2 Bft) 100 %
08.05.2026 15:10 16,9 °C 78 % 1018,7 hPa 0,0 l/m² 2,2 km/h (1 Bft) O-SO 105 ° 207 W/m² 13,0 °C 16,9 °C 4,8 km/h (1 Bft) 100 %
08.05.2026 15:05 16,9 °C 80 % 1018,8 hPa 0,0 l/m² 0,9 km/h (0 Bft) O-SO 105 ° 182 W/m² 13,4 °C 16,9 °C 3,2 km/h (1 Bft) 100 %
08.05.2026 15:00 16,9 °C 78 % 1018,9 hPa 0,0 l/m² 0,6 km/h (0 Bft) O-SO 105 ° 196 W/m² 13,0 °C 16,9 °C 3,2 km/h (1 Bft) 100 %
08.05.2026 14:55 17,2 °C 75 % 1019,0 hPa 0,0 l/m² 0,9 km/h (0 Bft) O-SO 105 ° 165 W/m² 12,7 °C 17,2 °C 3,2 km/h (1 Bft) 100 %
08.05.2026 14:50 17,2 °C 69 % 1019,0 hPa 0,0 l/m² 1,7 km/h (1 Bft) O-SO 105 ° 163 W/m² 11,5 °C 17,2 °C 4,8 km/h (1 Bft) 100 %
08.05.2026 14:45 17,3 °C 74 % 1019,1 hPa 0,0 l/m² 0,4 km/h (0 Bft) O-SO 106 ° 217 W/m² 12,6 °C 17,3 °C 1,6 km/h (1 Bft) 100 %
08.05.2026 14:40 17,2 °C 68 % 1019,1 hPa 0,0 l/m² 2,8 km/h (1 Bft) O-SO 106 ° 170 W/m² 11,2 °C 17,2 °C 9,7 km/h (2 Bft) 100 %
08.05.2026 14:35 17,4 °C 71 % 1019,1 hPa 0,0 l/m² 1,8 km/h (1 Bft) O-NO 77 ° 158 W/m² 12,1 °C 17,4 °C 6,4 km/h (2 Bft) 100 %
08.05.2026 14:30 17,7 °C 71 % 1019,2 hPa 0,0 l/m² 1,6 km/h (1 Bft) O 100 ° 193 W/m² 12,4 °C 17,7 °C 3,2 km/h (1 Bft) 100 %
08.05.2026 14:25 17,9 °C 70 % 1019,2 hPa 0,0 l/m² 1,3 km/h (1 Bft) O-SO 116 ° 171 W/m² 12,3 °C 17,9 °C 3,2 km/h (1 Bft) 100 %
08.05.2026 14:20 18,0 °C 68 % 1019,2 hPa 0,0 l/m² 1,0 km/h (0 Bft) O-SO 116 ° 193 W/m² 12,0 °C 18,0 °C 4,8 km/h (1 Bft) 100 %
08.05.2026 14:15 17,9 °C 66 % 1019,1 hPa 0,0 l/m² 1,9 km/h (1 Bft) O-SO 107 ° 321 W/m² 11,5 °C 17,9 °C 6,4 km/h (2 Bft) 100 %
08.05.2026 14:10 17,9 °C 67 % 1019,1 hPa 0,0 l/m² 2,2 km/h (1 Bft) O-SO 114 ° 434 W/m² 11,7 °C 17,9 °C 6,4 km/h (2 Bft) 100 %
08.05.2026 14:05 17,7 °C 67 % 1019,1 hPa 0,0 l/m² 1,9 km/h (1 Bft) O-SO 109 ° 303 W/m² 11,5 °C 17,7 °C 4,8 km/h (1 Bft) 100 %
08.05.2026 14:00 17,8 °C 70 % 1019,1 hPa 0,0 l/m² 2,3 km/h (1 Bft) O-SO 104 ° 314 W/m² 12,3 °C 17,8 °C 9,7 km/h (2 Bft) 100 %
08.05.2026 13:55 18,3 °C 65 % 1019,2 hPa 0,0 l/m² 3,6 km/h (1 Bft) O-SO 120 ° 776 W/m² 11,6 °C 18,3 °C 8,0 km/h (2 Bft) 100 %
08.05.2026 13:50 18,4 °C 67 % 1019,1 hPa 0,0 l/m² 3,0 km/h (1 Bft) SO 131 ° 969 W/m² 12,2 °C 18,4 °C 8,0 km/h (2 Bft) 100 %
08.05.2026 13:45 18,2 °C 68 % 1019,3 hPa 0,0 l/m² 2,8 km/h (1 Bft) S 173 ° 935 W/m² 12,2 °C 18,2 °C 9,7 km/h (2 Bft) 100 %
08.05.2026 13:40 17,7 °C 68 % 1019,5 hPa 0,0 l/m² 5,4 km/h (1 Bft) O 93 ° 830 W/m² 11,7 °C 17,7 °C 11,3 km/h (2 Bft) 100 %
08.05.2026 13:35 17,2 °C 69 % 1019,4 hPa 0,0 l/m² 5,9 km/h (2 Bft) O 97 ° 318 W/m² 11,5 °C 17,2 °C 11,3 km/h (2 Bft) 100 %
08.05.2026 13:30 17,4 °C 69 % 1019,4 hPa 0,0 l/m² 6,1 km/h (2 Bft) O 97 ° 715 W/m² 11,7 °C 17,4 °C 14,5 km/h (3 Bft) 100 %
08.05.2026 13:25 17,0 °C 68 % 1019,3 hPa 0,0 l/m² 3,5 km/h (1 Bft) O-NO 75 ° 330 W/m² 11,0 °C 17,0 °C 9,7 km/h (2 Bft) 100 %
08.05.2026 13:20 16,9 °C 68 % 1019,4 hPa 0,0 l/m² 2,2 km/h (1 Bft) O-SO 108 ° 222 W/m² 11,0 °C 16,9 °C 11,3 km/h (2 Bft) 100 %
08.05.2026 13:15 17,3 °C 78 % 1019,6 hPa 0,0 l/m² 0,9 km/h (0 Bft) O 83 ° 288 W/m² 13,4 °C 17,3 °C 4,8 km/h (1 Bft) 100 %
08.05.2026 13:10 17,4 °C 76 % 1019,4 hPa 0,0 l/m² 1,3 km/h (1 Bft) O-NO 75 ° 265 W/m² 13,1 °C 17,4 °C 4,8 km/h (1 Bft) 100 %
08.05.2026 13:05 17,3 °C 72 % 1019,4 hPa 0,0 l/m² 4,2 km/h (1 Bft) O-SO 108 ° 319 W/m² 12,2 °C 17,3 °C 9,7 km/h (2 Bft) 100 %
08.05.2026 13:00 17,2 °C 71 % 1019,4 hPa 0,0 l/m² 3,2 km/h (1 Bft) O-SO 114 ° 275 W/m² 11,9 °C 17,2 °C 6,4 km/h (2 Bft) 100 %
08.05.2026 12:55 17,8 °C 69 % 1019,3 hPa 0,0 l/m² 5,0 km/h (1 Bft) O-SO 105 ° 818 W/m² 12,0 °C 17,8 °C 9,7 km/h (2 Bft) 100 %
08.05.2026 12:50 18,5 °C 67 % 1019,4 hPa 0,0 l/m² 2,8 km/h (1 Bft) SO 143 ° 905 W/m² 12,3 °C 18,5 °C 6,4 km/h (2 Bft) 100 %
08.05.2026 12:45 17,8 °C 73 % 1019,4 hPa 0,0 l/m² 4,5 km/h (1 Bft) NO 50 ° 927 W/m² 12,9 °C 17,8 °C 11,3 km/h (2 Bft) 100 %
08.05.2026 12:40 17,3 °C 72 % 1019,5 hPa 0,0 l/m² 5,2 km/h (1 Bft) O 84 ° 923 W/m² 12,2 °C 17,3 °C 11,3 km/h (2 Bft) 100 %
08.05.2026 12:35 17,6 °C 71 % 1019,5 hPa 0,0 l/m² 3,4 km/h (1 Bft) O 100 ° 756 W/m² 12,3 °C 17,6 °C 9,7 km/h (2 Bft) 100 %
08.05.2026 12:30 17,6 °C 77 % 1019,5 hPa 0,0 l/m² 6,0 km/h (2 Bft) O-NO 68 ° 961 W/m² 13,5 °C 17,6 °C 14,5 km/h (3 Bft) 100 %
08.05.2026 12:25 17,2 °C 73 % 1019,5 hPa 0,0 l/m² 4,1 km/h (1 Bft) SO 131 ° 953 W/m² 12,3 °C 17,2 °C 9,7 km/h (2 Bft) 100 %
08.05.2026 12:20 17,2 °C 74 % 1019,6 hPa 0,0 l/m² 2,1 km/h (1 Bft) O-SO 106 ° 934 W/m² 12,5 °C 17,2 °C 6,4 km/h (2 Bft) 100 %
08.05.2026 12:15 16,8 °C 73 % 1019,6 hPa 0,0 l/m² 2,5 km/h (1 Bft) SO 125 ° 911 W/m² 11,9 °C 16,8 °C 4,8 km/h (1 Bft) 100 %
08.05.2026 12:10 17,2 °C 77 % 1019,7 hPa 0,0 l/m² 1,6 km/h (1 Bft) SW 220 ° 887 W/m² 13,1 °C 17,2 °C 4,8 km/h (1 Bft) 100 %
08.05.2026 12:05 16,9 °C 77 % 1019,8 hPa 0,0 l/m² 2,1 km/h (1 Bft) SO 134 ° 876 W/m² 12,8 °C 16,9 °C 4,8 km/h (1 Bft) 100 %
08.05.2026 12:00 16,9 °C 74 % 1019,9 hPa 0,0 l/m² 2,1 km/h (1 Bft) S-SW 200 ° 895 W/m² 12,2 °C 16,9 °C 6,4 km/h (2 Bft) 100 %
08.05.2026 11:55 16,4 °C 78 % 1019,9 hPa 0,0 l/m² 1,4 km/h (1 Bft) S 191 ° 819 W/m² 12,6 °C 16,4 °C 3,2 km/h (1 Bft) 100 %
08.05.2026 11:50 16,2 °C 78 % 1019,9 hPa 0,0 l/m² 1,2 km/h (1 Bft) S-SW 202 ° 765 W/m² 12,4 °C 16,2 °C 6,4 km/h (2 Bft) 100 %
08.05.2026 11:45 15,7 °C 80 % 1020,0 hPa 0,0 l/m² 1,2 km/h (1 Bft) SO 144 ° 834 W/m² 12,3 °C 15,7 °C 3,2 km/h (1 Bft) 100 %
08.05.2026 11:40 15,0 °C 84 % 1020,0 hPa 0,0 l/m² 0,4 km/h (0 Bft) S-SO 149 ° 462 W/m² 12,3 °C 15,0 °C 3,2 km/h (1 Bft) 100 %
08.05.2026 11:35 14,6 °C 83 % 1020,1 hPa 0,2 l/m² 0,2 km/h (0 Bft) S-SO 149 ° 585 W/m² 11,7 °C 14,6 °C 1,6 km/h (1 Bft) 100 %
08.05.2026 11:30 14,1 °C 84 % 1020,1 hPa 0,0 l/m² 0,0 km/h (0 Bft) S-SW 201 ° 697 W/m² 11,4 °C 14,1 °C 0,0 km/h (0 Bft) 100 %
08.05.2026 11:25 13,6 °C 87 % 1020,3 hPa 0,0 l/m² 0,0 km/h (0 Bft) S-SW 201 ° 739 W/m² 11,5 °C 13,6 °C 0,0 km/h (0 Bft) 100 %
08.05.2026 11:20 13,2 °C 90 % 1020,2 hPa 0,0 l/m² 0,0 km/h (0 Bft) S-SW 203 ° 427 W/m² 11,6 °C 13,2 °C 0,0 km/h (0 Bft) 100 %
08.05.2026 11:15 12,8 °C 89 % 1020,3 hPa 0,0 l/m² 0,0 km/h (0 Bft) S-SW 203 ° 212 W/m² 11,0 °C 12,8 °C 0,0 km/h (0 Bft) 100 %
08.05.2026 11:10 12,7 °C 89 % 1020,3 hPa 0,0 l/m² 0,0 km/h (0 Bft) S-SW 202 ° 402 W/m² 10,9 °C 12,7 °C 0,0 km/h (0 Bft) 100 %
08.05.2026 11:05 12,6 °C 90 % 1020,3 hPa 0,0 l/m² 0,0 km/h (0 Bft) S-SW 203 ° 169 W/m² 11,0 °C 12,6 °C 0,0 km/h (0 Bft) 100 %
08.05.2026 11:00 12,5 °C 90 % 1020,4 hPa 0,0 l/m² 0,0 km/h (0 Bft) S-SW 203 ° 152 W/m² 10,9 °C 12,5 °C 0,0 km/h (0 Bft) 100 %
08.05.2026 10:55 12,4 °C 90 % 1020,4 hPa 0,0 l/m² 0,0 km/h (0 Bft) S-SW 202 ° 151 W/m² 10,8 °C 12,4 °C 0,0 km/h (0 Bft) 100 %
08.05.2026 10:50 12,3 °C 91 % 1020,3 hPa 0,0 l/m² 0,0 km/h (0 Bft) S-SW 202 ° 261 W/m² 10,9 °C 12,3 °C 0,0 km/h (0 Bft) 100 %
08.05.2026 10:45 12,1 °C 92 % 1020,3 hPa 0,0 l/m² 0,0 km/h (0 Bft) S-SW 199 ° 349 W/m² 10,8 °C 12,1 °C 0,0 km/h (0 Bft) 100 %
08.05.2026 10:40 11,8 °C 93 % 1020,3 hPa 0,0 l/m² 0,3 km/h (0 Bft) S-SW 200 ° 185 W/m² 10,7 °C 11,8 °C 3,2 km/h (1 Bft) 100 %
08.05.2026 10:35 11,7 °C 95 % 1020,2 hPa 0,0 l/m² 2,7 km/h (1 Bft) S-SW 205 ° 278 W/m² 10,9 °C 11,7 °C 6,4 km/h (2 Bft) 100 %
08.05.2026 10:30 11,2 °C 95 % 1020,3 hPa 0,0 l/m² 0,7 km/h (0 Bft) W 273 ° 270 W/m² 10,4 °C 11,2 °C 4,8 km/h (1 Bft) 100 %
08.05.2026 10:25 10,8 °C 95 % 1020,2 hPa 0,0 l/m² 0,3 km/h (0 Bft) W 277 ° 457 W/m² 10,0 °C 10,8 °C 1,6 km/h (1 Bft) 100 %
08.05.2026 10:20 10,6 °C 96 % 1020,4 hPa 0,0 l/m² 0,6 km/h (0 Bft) W 277 ° 497 W/m² 10,0 °C 10,6 °C 3,2 km/h (1 Bft) 100 %
08.05.2026 10:15 10,3 °C 96 % 1020,4 hPa 0,0 l/m² 0,8 km/h (0 Bft) W 276 ° 317 W/m² 9,7 °C 10,3 °C 4,8 km/h (1 Bft) 100 %
08.05.2026 10:10 9,7 °C 96 % 1020,3 hPa 0,0 l/m² 0,0 km/h (0 Bft) N-NW 348 ° 200 W/m² 9,1 °C 9,7 °C 0,0 km/h (0 Bft) 100 %
08.05.2026 10:05 9,6 °C 96 % 1020,3 hPa 0,0 l/m² 0,0 km/h (0 Bft) N-NW 348 ° 119 W/m² 9,0 °C 9,6 °C 0,0 km/h (0 Bft) 100 %
08.05.2026 10:00 9,5 °C 96 % 1020,3 hPa 0,0 l/m² 0,0 km/h (0 Bft) N-NW 348 ° 75 W/m² 8,9 °C 9,5 °C 0,0 km/h (0 Bft) 100 %
08.05.2026 09:55 9,3 °C 96 % 1020,2 hPa 0,0 l/m² 0,0 km/h (0 Bft) N-NW 348 ° 42 W/m² 8,7 °C 9,3 °C 0,0 km/h (0 Bft) 100 %
08.05.2026 09:50 9,2 °C 96 % 1020,3 hPa 0,0 l/m² 0,0 km/h (0 Bft) N-NW 348 ° 55 W/m² 8,6 °C 9,2 °C 0,0 km/h (0 Bft) 100 %
08.05.2026 09:45 9,1 °C 96 % 1020,3 hPa 0,0 l/m² 0,0 km/h (0 Bft) N-NW 348 ° 74 W/m² 8,5 °C 9,1 °C 0,0 km/h (0 Bft) 100 %
08.05.2026 09:40 8,9 °C 96 % 1020,3 hPa 0,0 l/m² 0,0 km/h (0 Bft) N-NW 348 ° 126 W/m² 8,3 °C 8,9 °C 0,0 km/h (0 Bft) 100 %
08.05.2026 09:35 8,7 °C 96 % 1020,4 hPa 0,0 l/m² 0,0 km/h (0 Bft) N-NW 348 ° 101 W/m² 8,1 °C 8,7 °C 0,0 km/h (0 Bft) 100 %
08.05.2026 09:30 8,6 °C 96 % 1020,3 hPa 0,0 l/m² 0,0 km/h (0 Bft) W 279 ° 67 W/m² 8,0 °C 8,6 °C 0,0 km/h (0 Bft) 100 %
08.05.2026 09:25 8,4 °C 96 % 1020,4 hPa 0,0 l/m² 0,0 km/h (0 Bft) W 279 ° 51 W/m² 7,8 °C 8,4 °C 0,0 km/h (0 Bft) 100 %
08.05.2026 09:20 8,4 °C 96 % 1020,4 hPa 0,0 l/m² 0,0 km/h (0 Bft) W 279 ° 46 W/m² 7,8 °C 8,4 °C 0,0 km/h (0 Bft) 100 %
08.05.2026 09:15 8,3 °C 96 % 1020,4 hPa 0,0 l/m² 0,0 km/h (0 Bft) W 279 ° 56 W/m² 7,7 °C 8,3 °C 0,0 km/h (0 Bft) 100 %
08.05.2026 09:10 8,2 °C 96 % 1020,3 hPa 0,0 l/m² 0,0 km/h (0 Bft) W 279 ° 88 W/m² 7,6 °C 8,2 °C 0,0 km/h (0 Bft) 100 %
08.05.2026 09:05 8,1 °C 96 % 1020,4 hPa 0,0 l/m² 0,0 km/h (0 Bft) W 279 ° 113 W/m² 7,5 °C 8,1 °C 0,0 km/h (0 Bft) 100 %
08.05.2026 09:00 7,8 °C 96 % 1020,4 hPa 0,0 l/m² 0,0 km/h (0 Bft) W 279 ° 98 W/m² 7,2 °C 7,8 °C 0,0 km/h (0 Bft) 100 %
08.05.2026 08:55 7,6 °C 95 % 1020,3 hPa 0,0 l/m² 0,0 km/h (0 Bft) W 279 ° 67 W/m² 6,9 °C 7,6 °C 0,0 km/h (0 Bft) 100 %
08.05.2026 08:50 7,4 °C 95 % 1020,3 hPa 0,0 l/m² 0,0 km/h (0 Bft) W 279 ° 43 W/m² 6,7 °C 7,4 °C 0,0 km/h (0 Bft) 100 %
08.05.2026 08:45 7,3 °C 95 % 1020,4 hPa 0,0 l/m² 0,0 km/h (0 Bft) W 279 ° 34 W/m² 6,6 °C 7,3 °C 0,0 km/h (0 Bft) 100 %
08.05.2026 08:40 7,2 °C 95 % 1020,3 hPa 0,0 l/m² 0,0 km/h (0 Bft) W 279 ° 31 W/m² 6,5 °C 7,2 °C 0,0 km/h (0 Bft) 100 %
08.05.2026 08:35 7,1 °C 95 % 1020,2 hPa 0,0 l/m² 0,0 km/h (0 Bft) W 279 ° 29 W/m² 6,4 °C 7,1 °C 0,0 km/h (0 Bft) 100 %
08.05.2026 08:30 7,0 °C 95 % 1020,1 hPa 0,0 l/m² 0,0 km/h (0 Bft) W 279 ° 28 W/m² 6,3 °C 7,0 °C 0,0 km/h (0 Bft) 100 %
08.05.2026 08:25 6,9 °C 95 % 1020,1 hPa 0,0 l/m² 0,0 km/h (0 Bft) W 279 ° 30 W/m² 6,2 °C 6,9 °C 0,0 km/h (0 Bft) 100 %
08.05.2026 08:20 6,9 °C 95 % 1020,1 hPa 0,0 l/m² 0,0 km/h (0 Bft) W 279 ° 30 W/m² 6,2 °C 6,9 °C 0,0 km/h (0 Bft) 100 %
08.05.2026 08:15 6,7 °C 95 % 1020,2 hPa 0,0 l/m² 0,0 km/h (0 Bft) W 279 ° 27 W/m² 6,0 °C 6,7 °C 0,0 km/h (0 Bft) 100 %
08.05.2026 08:10 6,6 °C 95 % 1020,0 hPa 0,0 l/m² 0,0 km/h (0 Bft) W 279 ° 25 W/m² 5,9 °C 6,6 °C 0,0 km/h (0 Bft) 100 %
08.05.2026 08:05 6,6 °C 95 % 1020,0 hPa 0,0 l/m² 0,0 km/h (0 Bft) W 279 ° 23 W/m² 5,9 °C 6,6 °C 0,0 km/h (0 Bft) 100 %
08.05.2026 08:00 6,4 °C 95 % 1020,0 hPa 0,0 l/m² 0,0 km/h (0 Bft) W 279 ° 21 W/m² 5,7 °C 6,4 °C 0,0 km/h (0 Bft) 100 %
08.05.2026 07:55 6,3 °C 95 % 1020,0 hPa 0,0 l/m² 0,0 km/h (0 Bft) W 279 ° 20 W/m² 5,6 °C 6,3 °C 0,0 km/h (0 Bft) 100 %
08.05.2026 07:50 6,2 °C 95 % 1019,9 hPa 0,0 l/m² 0,0 km/h (0 Bft) W 279 ° 19 W/m² 5,5 °C 6,2 °C 0,0 km/h (0 Bft) 100 %
08.05.2026 07:45 5,9 °C 95 % 1020,0 hPa 0,0 l/m² 0,0 km/h (0 Bft) W 279 ° 19 W/m² 5,2 °C 5,9 °C 0,0 km/h (0 Bft) 100 %
08.05.2026 07:40 5,9 °C 95 % 1020,0 hPa 0,0 l/m² 0,0 km/h (0 Bft) W 279 ° 18 W/m² 5,2 °C 5,9 °C 0,0 km/h (0 Bft) 100 %
08.05.2026 07:35 5,9 °C 95 % 1019,9 hPa 0,0 l/m² 0,0 km/h (0 Bft) W 279 ° 18 W/m² 5,2 °C 5,9 °C 0,0 km/h (0 Bft) 100 %
08.05.2026 07:30 5,9 °C 95 % 1019,9 hPa 0,0 l/m² 0,0 km/h (0 Bft) W 279 ° 16 W/m² 5,2 °C 5,9 °C 0,0 km/h (0 Bft) 100 %
08.05.2026 07:25 5,9 °C 95 % 1020,0 hPa 0,0 l/m² 0,0 km/h (0 Bft) W 279 ° 16 W/m² 5,2 °C 5,9 °C 0,0 km/h (0 Bft) 100 %
08.05.2026 07:20 5,9 °C 95 % 1019,8 hPa 0,0 l/m² 0,0 km/h (0 Bft) W 279 ° 15 W/m² 5,2 °C 5,9 °C 0,0 km/h (0 Bft) 100 %
08.05.2026 07:15 6,0 °C 95 % 1019,9 hPa 0,0 l/m² 0,0 km/h (0 Bft) W 279 ° 14 W/m² 5,3 °C 6,0 °C 0,0 km/h (0 Bft) 100 %
08.05.2026 07:10 6,0 °C 95 % 1019,9 hPa 0,0 l/m² 0,0 km/h (0 Bft) W 279 ° 13 W/m² 5,3 °C 6,0 °C 0,0 km/h (0 Bft) 100 %
08.05.2026 07:05 6,0 °C 95 % 1019,9 hPa 0,0 l/m² 0,0 km/h (0 Bft) W 279 ° 12 W/m² 5,3 °C 6,0 °C 0,0 km/h (0 Bft) 100 %
08.05.2026 07:00 6,0 °C 95 % 1019,9 hPa 0,0 l/m² 0,0 km/h (0 Bft) W 279 ° 12 W/m² 5,3 °C 6,0 °C 0,0 km/h (0 Bft) 100 %
08.05.2026 06:55 6,0 °C 95 % 1019,9 hPa 0,0 l/m² 0,0 km/h (0 Bft) W 279 ° 10 W/m² 5,3 °C 6,0 °C 0,0 km/h (0 Bft) 100 %
08.05.2026 06:50 5,9 °C 95 % 1019,8 hPa 0,0 l/m² 0,0 km/h (0 Bft) W 279 ° 10 W/m² 5,2 °C 5,9 °C 0,0 km/h (0 Bft) 100 %
08.05.2026 06:45 5,9 °C 95 % 1019,8 hPa 0,0 l/m² 0,0 km/h (0 Bft) W 279 ° 9 W/m² 5,2 °C 5,9 °C 0,0 km/h (0 Bft) 100 %
08.05.2026 06:40 5,8 °C 95 % 1019,8 hPa 0,0 l/m² 0,0 km/h (0 Bft) W 279 ° 8 W/m² 5,1 °C 5,8 °C 0,0 km/h (0 Bft) 100 %
08.05.2026 06:35 5,8 °C 95 % 1019,8 hPa 0,0 l/m² 0,0 km/h (0 Bft) W 279 ° 7 W/m² 5,1 °C 5,8 °C 0,0 km/h (0 Bft) 100 %
08.05.2026 06:30 5,9 °C 95 % 1019,8 hPa 0,0 l/m² 0,0 km/h (0 Bft) W 279 ° 6 W/m² 5,2 °C 5,9 °C 0,0 km/h (0 Bft) 100 %
08.05.2026 06:25 5,9 °C 95 % 1019,8 hPa 0,0 l/m² 0,0 km/h (0 Bft) W 279 ° 5 W/m² 5,2 °C 5,9 °C 0,0 km/h (0 Bft) 100 %
08.05.2026 06:20 6,0 °C 95 % 1019,8 hPa 0,0 l/m² 0,0 km/h (0 Bft) W 279 ° 3 W/m² 5,3 °C 6,0 °C 0,0 km/h (0 Bft) 100 %
08.05.2026 06:15 6,0 °C 95 % 1019,8 hPa 0,0 l/m² 0,0 km/h (0 Bft) W 279 ° 0 W/m² 5,3 °C 6,0 °C 0,0 km/h (0 Bft) 100 %
08.05.2026 06:10 6,1 °C 95 % 1019,7 hPa 0,0 l/m² 0,0 km/h (0 Bft) W 279 ° 0 W/m² 5,4 °C 6,1 °C 0,0 km/h (0 Bft) 100 %
08.05.2026 06:05 6,1 °C 95 % 1019,7 hPa 0,0 l/m² 0,0 km/h (0 Bft) W 279 ° 0 W/m² 5,4 °C 6,1 °C 0,0 km/h (0 Bft) 100 %
08.05.2026 06:00 6,1 °C 95 % 1019,7 hPa 0,0 l/m² 0,0 km/h (0 Bft) W 279 ° 0 W/m² 5,4 °C 6,1 °C 0,0 km/h (0 Bft) 100 %
08.05.2026 05:55 6,0 °C 95 % 1019,7 hPa 0,0 l/m² 0,0 km/h (0 Bft) W 279 ° 0 W/m² 5,3 °C 6,0 °C 0,0 km/h (0 Bft) 100 %
08.05.2026 05:50 5,9 °C 95 % 1019,6 hPa 0,0 l/m² 0,0 km/h (0 Bft) W 279 ° 0 W/m² 5,2 °C 5,9 °C 0,0 km/h (0 Bft) 100 %
08.05.2026 05:45 6,0 °C 95 % 1019,6 hPa 0,0 l/m² 0,0 km/h (0 Bft) W 279 ° 0 W/m² 5,3 °C 6,0 °C 0,0 km/h (0 Bft) 100 %
08.05.2026 05:40 6,0 °C 95 % 1019,6 hPa 0,0 l/m² 0,0 km/h (0 Bft) W 279 ° 0 W/m² 5,3 °C 6,0 °C 0,0 km/h (0 Bft) 100 %
08.05.2026 05:35 5,9 °C 95 % 1019,7 hPa 0,0 l/m² 0,0 km/h (0 Bft) W 279 ° 0 W/m² 5,2 °C 5,9 °C 0,0 km/h (0 Bft) 100 %
08.05.2026 05:30 5,9 °C 95 % 1019,6 hPa 0,0 l/m² 0,0 km/h (0 Bft) W 279 ° 0 W/m² 5,2 °C 5,9 °C 0,0 km/h (0 Bft) 100 %
08.05.2026 05:25 5,9 °C 94 % 1019,6 hPa 0,0 l/m² 0,0 km/h (0 Bft) W 279 ° 0 W/m² 5,0 °C 5,9 °C 0,0 km/h (0 Bft) 100 %
08.05.2026 05:20 6,1 °C 94 % 1019,6 hPa 0,0 l/m² 0,0 km/h (0 Bft) W 279 ° 0 W/m² 5,2 °C 6,1 °C 0,0 km/h (0 Bft) 100 %
08.05.2026 05:15 6,2 °C 94 % 1019,6 hPa 0,0 l/m² 0,0 km/h (0 Bft) W 279 ° 0 W/m² 5,3 °C 6,2 °C 0,0 km/h (0 Bft) 100 %
08.05.2026 05:10 6,3 °C 94 % 1019,6 hPa 0,0 l/m² 0,0 km/h (0 Bft) W 279 ° 0 W/m² 5,4 °C 6,3 °C 0,0 km/h (0 Bft) 100 %
08.05.2026 05:05 6,4 °C 94 % 1019,5 hPa 0,0 l/m² 0,0 km/h (0 Bft) W 279 ° 0 W/m² 5,5 °C 6,4 °C 0,0 km/h (0 Bft) 100 %
08.05.2026 05:00 6,4 °C 94 % 1019,6 hPa 0,0 l/m² 0,0 km/h (0 Bft) W 279 ° 0 W/m² 5,5 °C 6,4 °C 0,0 km/h (0 Bft) 100 %
08.05.2026 04:55 6,4 °C 94 % 1019,6 hPa 0,0 l/m² 0,0 km/h (0 Bft) W 279 ° 0 W/m² 5,5 °C 6,4 °C 0,0 km/h (0 Bft) 100 %
08.05.2026 04:50 6,4 °C 94 % 1019,5 hPa 0,0 l/m² 0,0 km/h (0 Bft) W 279 ° 0 W/m² 5,5 °C 6,4 °C 0,0 km/h (0 Bft) 100 %
08.05.2026 04:45 6,4 °C 94 % 1019,5 hPa 0,0 l/m² 0,0 km/h (0 Bft) W 279 ° 0 W/m² 5,5 °C 6,4 °C 0,0 km/h (0 Bft) 100 %
08.05.2026 04:40 6,4 °C 94 % 1019,6 hPa 0,0 l/m² 0,0 km/h (0 Bft) W 279 ° 0 W/m² 5,5 °C 6,4 °C 0,0 km/h (0 Bft) 100 %
08.05.2026 04:35 6,3 °C 94 % 1019,6 hPa 0,0 l/m² 0,0 km/h (0 Bft) W 279 ° 0 W/m² 5,4 °C 6,3 °C 0,0 km/h (0 Bft) 100 %
08.05.2026 04:30 6,3 °C 94 % 1019,6 hPa 0,0 l/m² 0,0 km/h (0 Bft) W 279 ° 0 W/m² 5,4 °C 6,3 °C 0,0 km/h (0 Bft) 100 %
08.05.2026 04:25 6,3 °C 94 % 1019,5 hPa 0,0 l/m² 0,0 km/h (0 Bft) W 279 ° 0 W/m² 5,4 °C 6,3 °C 0,0 km/h (0 Bft) 100 %
08.05.2026 04:20 6,3 °C 94 % 1019,6 hPa 0,0 l/m² 0,0 km/h (0 Bft) W 279 ° 0 W/m² 5,4 °C 6,3 °C 0,0 km/h (0 Bft) 100 %
08.05.2026 04:15 6,3 °C 94 % 1019,6 hPa 0,0 l/m² 0,0 km/h (0 Bft) W 279 ° 0 W/m² 5,4 °C 6,3 °C 0,0 km/h (0 Bft) 100 %
08.05.2026 04:10 6,3 °C 94 % 1019,7 hPa 0,0 l/m² 0,0 km/h (0 Bft) W 279 ° 0 W/m² 5,4 °C 6,3 °C 0,0 km/h (0 Bft) 100 %
08.05.2026 04:05 6,3 °C 94 % 1019,6 hPa 0,0 l/m² 0,0 km/h (0 Bft) W 279 ° 0 W/m² 5,4 °C 6,3 °C 0,0 km/h (0 Bft) 100 %
08.05.2026 04:00 6,3 °C 94 % 1019,6 hPa 0,0 l/m² 0,0 km/h (0 Bft) W 279 ° 0 W/m² 5,4 °C 6,3 °C 0,0 km/h (0 Bft) 100 %
08.05.2026 03:55 6,4 °C 94 % 1019,6 hPa 0,0 l/m² 0,0 km/h (0 Bft) W 279 ° 0 W/m² 5,5 °C 6,4 °C 0,0 km/h (0 Bft) 100 %
08.05.2026 03:50 6,5 °C 94 % 1019,6 hPa 0,0 l/m² 0,0 km/h (0 Bft) W 279 ° 0 W/m² 5,6 °C 6,5 °C 0,0 km/h (0 Bft) 100 %
08.05.2026 03:45 6,6 °C 94 % 1019,6 hPa 0,0 l/m² 0,0 km/h (0 Bft) W 279 ° 0 W/m² 5,7 °C 6,6 °C 0,0 km/h (0 Bft) 100 %
08.05.2026 03:40 6,6 °C 94 % 1019,5 hPa 0,0 l/m² 0,0 km/h (0 Bft) W 279 ° 0 W/m² 5,7 °C 6,6 °C 0,0 km/h (0 Bft) 100 %
08.05.2026 03:35 6,7 °C 94 % 1019,5 hPa 0,0 l/m² 0,0 km/h (0 Bft) W 279 ° 0 W/m² 5,8 °C 6,7 °C 0,0 km/h (0 Bft) 100 %
08.05.2026 03:30 6,8 °C 94 % 1019,4 hPa 0,0 l/m² 0,0 km/h (0 Bft) W 279 ° 0 W/m² 5,9 °C 6,8 °C 0,0 km/h (0 Bft) 100 %
08.05.2026 03:25 6,8 °C 94 % 1019,3 hPa 0,0 l/m² 0,0 km/h (0 Bft) W 279 ° 0 W/m² 5,9 °C 6,8 °C 0,0 km/h (0 Bft) 100 %
08.05.2026 03:20 6,9 °C 94 % 1019,4 hPa 0,0 l/m² 0,0 km/h (0 Bft) W 279 ° 0 W/m² 6,0 °C 6,9 °C 0,0 km/h (0 Bft) 100 %
08.05.2026 03:15 6,9 °C 93 % 1019,3 hPa 0,0 l/m² 0,0 km/h (0 Bft) W 279 ° 0 W/m² 5,8 °C 6,9 °C 0,0 km/h (0 Bft) 100 %
08.05.2026 03:10 6,9 °C 94 % 1019,3 hPa 0,0 l/m² 0,0 km/h (0 Bft) W 279 ° 0 W/m² 6,0 °C 6,9 °C 0,0 km/h (0 Bft) 100 %
08.05.2026 03:05 6,9 °C 94 % 1019,3 hPa 0,0 l/m² 0,0 km/h (0 Bft) W 279 ° 0 W/m² 6,0 °C 6,9 °C 0,0 km/h (0 Bft) 100 %
08.05.2026 03:00 6,9 °C 93 % 1019,3 hPa 0,0 l/m² 0,0 km/h (0 Bft) W 279 ° 0 W/m² 5,8 °C 6,9 °C 0,0 km/h (0 Bft) 100 %
08.05.2026 02:55 7,0 °C 93 % 1019,4 hPa 0,0 l/m² 0,0 km/h (0 Bft) W 279 ° 0 W/m² 5,9 °C 7,0 °C 0,0 km/h (0 Bft) 100 %
08.05.2026 02:50 7,0 °C 93 % 1019,4 hPa 0,0 l/m² 0,0 km/h (0 Bft) W 279 ° 0 W/m² 5,9 °C 7,0 °C 0,0 km/h (0 Bft) 100 %
08.05.2026 02:45 7,1 °C 93 % 1019,5 hPa 0,0 l/m² 0,0 km/h (0 Bft) W 279 ° 0 W/m² 6,0 °C 7,1 °C 0,0 km/h (0 Bft) 100 %
08.05.2026 02:40 7,1 °C 93 % 1019,4 hPa 0,0 l/m² 0,0 km/h (0 Bft) W 279 ° 0 W/m² 6,0 °C 7,1 °C 0,0 km/h (0 Bft) 100 %
08.05.2026 02:35 7,1 °C 93 % 1019,5 hPa 0,0 l/m² 0,0 km/h (0 Bft) W 279 ° 0 W/m² 6,0 °C 7,1 °C 0,0 km/h (0 Bft) 100 %
08.05.2026 02:30 7,2 °C 93 % 1019,5 hPa 0,0 l/m² 0,0 km/h (0 Bft) W 279 ° 0 W/m² 6,1 °C 7,2 °C 0,0 km/h (0 Bft) 100 %
08.05.2026 02:25 7,3 °C 93 % 1019,5 hPa 0,0 l/m² 0,0 km/h (0 Bft) W 279 ° 0 W/m² 6,2 °C 7,3 °C 0,0 km/h (0 Bft) 100 %
08.05.2026 02:20 7,3 °C 92 % 1019,5 hPa 0,0 l/m² 0,0 km/h (0 Bft) W 279 ° 0 W/m² 6,1 °C 7,3 °C 0,0 km/h (0 Bft) 100 %
08.05.2026 02:15 7,3 °C 92 % 1019,6 hPa 0,0 l/m² 0,0 km/h (0 Bft) W 279 ° 0 W/m² 6,1 °C 7,3 °C 0,0 km/h (0 Bft) 100 %
08.05.2026 02:10 7,4 °C 92 % 1019,6 hPa 0,0 l/m² 0,0 km/h (0 Bft) W 279 ° 0 W/m² 6,2 °C 7,4 °C 0,0 km/h (0 Bft) 100 %
08.05.2026 02:05 7,5 °C 92 % 1019,7 hPa 0,0 l/m² 0,0 km/h (0 Bft) W 279 ° 0 W/m² 6,3 °C 7,5 °C 0,0 km/h (0 Bft) 100 %
08.05.2026 02:00 7,5 °C 92 % 1019,7 hPa 0,0 l/m² 0,0 km/h (0 Bft) W 279 ° 0 W/m² 6,3 °C 7,5 °C 0,0 km/h (0 Bft) 100 %
_ Min-Zeit 06:45 18:00 18:30 - 02:00 - - - 05:25 06:35 02:00 02:00
Minimum _ 5,7 °C 58 % 1017,4 hPa - 0,0 km/h (0 Bft) - - - 5,0 °C 5,8 °C 0,0 km/h (0 Bft) 100 %
_ Max-Zeit 17:00 09:00 08:45 11:35 13:30 - - 13:50 17:15 17:00 12:30 02:00
Maximum _ 20,8 °C 96 % 1020,4 hPa 0,2 l/m² 6,1 km/h
O (2 Bft)
- - 969 W/m² 13,7 °C 20,8 °C 14,5 km/h
O (3 Bft)
100 %
Durchschnitt _ 12,4 °C 83 % 1019,3 hPa #0,2 l/m² 1,3 km/h (1 Bft) W-NW - 0 W/m² 9,3 °C 12,4 °C 3,3 km/h (1 Bft) 100 %
Elztal-Wetter